sensor_id;sensor_type;location;lat;lon;timestamp;P1;durP1;ratioP1;P2;durP2;ratioP2
15192;SDS011;7697;51.630;7.484;2024-03-02T00:04:43;4.60;;;1.90;;
15192;SDS011;7697;51.630;7.484;2024-03-02T00:09:45;2.38;;;2.08;;
15192;SDS011;7697;51.630;7.484;2024-03-02T00:14:49;2.08;;;1.60;;
15192;SDS011;7697;51.630;7.484;2024-03-02T00:19:51;2.85;;;2.20;;
15192;SDS011;7697;51.630;7.484;2024-03-02T00:24:53;5.35;;;2.30;;
15192;SDS011;7697;51.630;7.484;2024-03-02T00:29:57;2.10;;;1.70;;
15192;SDS011;7697;51.630;7.484;2024-03-02T00:34:58;3.10;;;1.85;;
15192;SDS011;7697;51.630;7.484;2024-03-02T00:40:00;2.95;;;1.83;;
15192;SDS011;7697;51.630;7.484;2024-03-02T00:45:06;2.05;;;1.73;;
15192;SDS011;7697;51.630;7.484;2024-03-02T00:50:09;2.05;;;1.80;;
15192;SDS011;7697;51.630;7.484;2024-03-02T00:55:11;2.25;;;1.77;;
15192;SDS011;7697;51.630;7.484;2024-03-02T01:00:15;2.00;;;1.70;;
15192;SDS011;7697;51.630;7.484;2024-03-02T01:05:18;2.08;;;1.77;;
15192;SDS011;7697;51.630;7.484;2024-03-02T01:10:19;1.85;;;1.60;;
15192;SDS011;7697;51.630;7.484;2024-03-02T01:15:23;4.13;;;1.70;;
15192;SDS011;7697;51.630;7.484;2024-03-02T01:20:25;3.97;;;1.83;;
15192;SDS011;7697;51.630;7.484;2024-03-02T01:25:27;2.10;;;1.80;;
15192;SDS011;7697;51.630;7.484;2024-03-02T01:30:30;2.63;;;1.60;;
15192;SDS011;7697;51.630;7.484;2024-03-02T01:35:32;2.90;;;1.80;;
15192;SDS011;7697;51.630;7.484;2024-03-02T01:40:35;2.00;;;1.42;;
15192;SDS011;7697;51.630;7.484;2024-03-02T01:45:38;2.35;;;1.77;;
15192;SDS011;7697;51.630;7.484;2024-03-02T01:50:40;3.22;;;1.90;;
15192;SDS011;7697;51.630;7.484;2024-03-02T01:55:42;2.45;;;1.67;;
15192;SDS011;7697;51.630;7.484;2024-03-02T02:00:45;3.15;;;1.60;;
15192;SDS011;7697;51.630;7.484;2024-03-02T02:05:48;3.03;;;1.55;;
15192;SDS011;7697;51.630;7.484;2024-03-02T02:10:50;2.22;;;1.60;;
15192;SDS011;7697;51.630;7.484;2024-03-02T02:15:53;3.00;;;1.67;;
15192;SDS011;7697;51.630;7.484;2024-03-02T02:20:55;3.17;;;1.70;;
15192;SDS011;7697;51.630;7.484;2024-03-02T02:25:58;2.85;;;1.58;;
15192;SDS011;7697;51.630;7.484;2024-03-02T02:31:00;1.67;;;1.38;;
15192;SDS011;7697;51.630;7.484;2024-03-02T02:36:03;2.13;;;1.60;;
15192;SDS011;7697;51.630;7.484;2024-03-02T02:41:07;1.98;;;1.38;;
15192;SDS011;7697;51.630;7.484;2024-03-02T02:46:08;3.20;;;1.40;;
15192;SDS011;7697;51.630;7.484;2024-03-02T02:51:10;1.83;;;1.42;;
15192;SDS011;7697;51.630;7.484;2024-03-02T02:56:14;2.08;;;1.50;;
15192;SDS011;7697;51.630;7.484;2024-03-02T03:01:15;2.22;;;1.67;;
15192;SDS011;7697;51.630;7.484;2024-03-02T03:06:18;2.78;;;1.67;;
15192;SDS011;7697;51.630;7.484;2024-03-02T03:11:21;2.60;;;1.60;;
15192;SDS011;7697;51.630;7.484;2024-03-02T03:16:25;2.88;;;2.08;;
15192;SDS011;7697;51.630;7.484;2024-03-02T03:21:26;2.72;;;1.60;;
15192;SDS011;7697;51.630;7.484;2024-03-02T03:26:30;4.43;;;2.00;;
15192;SDS011;7697;51.630;7.484;2024-03-02T03:31:31;2.33;;;1.70;;
15192;SDS011;7697;51.630;7.484;2024-03-02T03:36:33;3.17;;;1.80;;
15192;SDS011;7697;51.630;7.484;2024-03-02T03:41:36;3.50;;;2.28;;
15192;SDS011;7697;51.630;7.484;2024-03-02T03:46:38;2.47;;;1.60;;
15192;SDS011;7697;51.630;7.484;2024-03-02T03:51:40;2.55;;;1.92;;
15192;SDS011;7697;51.630;7.484;2024-03-02T03:56:43;1.77;;;1.50;;
15192;SDS011;7697;51.630;7.484;2024-03-02T04:01:45;2.40;;;1.52;;
15192;SDS011;7697;51.630;7.484;2024-03-02T04:06:46;2.08;;;1.67;;
15192;SDS011;7697;51.630;7.484;2024-03-02T04:11:50;2.95;;;1.40;;
15192;SDS011;7697;51.630;7.484;2024-03-02T04:16:51;1.88;;;1.20;;
15192;SDS011;7697;51.630;7.484;2024-03-02T04:21:53;1.40;;;1.10;;
15192;SDS011;7697;51.630;7.484;2024-03-02T04:26:56;1.83;;;1.30;;
15192;SDS011;7697;51.630;7.484;2024-03-02T04:31:58;2.05;;;1.10;;
15192;SDS011;7697;51.630;7.484;2024-03-02T04:37:00;2.03;;;1.30;;
15192;SDS011;7697;51.630;7.484;2024-03-02T04:42:04;2.38;;;1.23;;
15192;SDS011;7697;51.630;7.484;2024-03-02T04:47:05;1.70;;;1.30;;
15192;SDS011;7697;51.630;7.484;2024-03-02T04:52:07;1.70;;;1.40;;
15192;SDS011;7697;51.630;7.484;2024-03-02T04:57:10;1.40;;;1.30;;
15192;SDS011;7697;51.630;7.484;2024-03-02T05:02:12;2.08;;;1.30;;
15192;SDS011;7697;51.630;7.484;2024-03-02T05:07:15;2.22;;;1.40;;
15192;SDS011;7697;51.630;7.484;2024-03-02T05:12:18;2.30;;;1.55;;
15192;SDS011;7697;51.630;7.484;2024-03-02T05:17:55;1.30;;;1.20;;
15192;SDS011;7697;51.630;7.484;2024-03-02T05:22:59;1.83;;;1.50;;
15192;SDS011;7697;51.630;7.484;2024-03-02T05:28:03;1.80;;;1.40;;
15192;SDS011;7697;51.630;7.484;2024-03-02T05:33:05;2.08;;;1.40;;
15192;SDS011;7697;51.630;7.484;2024-03-02T05:38:06;1.33;;;1.20;;
15192;SDS011;7697;51.630;7.484;2024-03-02T05:43:10;2.17;;;1.58;;
15192;SDS011;7697;51.630;7.484;2024-03-02T05:48:12;2.05;;;1.55;;
15192;SDS011;7697;51.630;7.484;2024-03-02T05:53:13;2.60;;;1.70;;
15192;SDS011;7697;51.630;7.484;2024-03-02T05:58:17;2.60;;;1.85;;
15192;SDS011;7697;51.630;7.484;2024-03-02T06:03:27;2.63;;;1.80;;
15192;SDS011;7697;51.630;7.484;2024-03-02T06:08:29;2.47;;;1.90;;
15192;SDS011;7697;51.630;7.484;2024-03-02T06:13:32;2.00;;;1.80;;
15192;SDS011;7697;51.630;7.484;2024-03-02T06:18:34;3.33;;;2.00;;
15192;SDS011;7697;51.630;7.484;2024-03-02T06:23:36;3.95;;;2.42;;
15192;SDS011;7697;51.630;7.484;2024-03-02T06:28:39;4.85;;;3.10;;
15192;SDS011;7697;51.630;7.484;2024-03-02T06:33:40;5.55;;;3.50;;
15192;SDS011;7697;51.630;7.484;2024-03-02T06:38:42;3.90;;;2.63;;
15192;SDS011;7697;51.630;7.484;2024-03-02T06:43:45;4.43;;;3.40;;
15192;SDS011;7697;51.630;7.484;2024-03-02T06:48:50;4.28;;;3.20;;
15192;SDS011;7697;51.630;7.484;2024-03-02T06:53:51;5.25;;;2.47;;
15192;SDS011;7697;51.630;7.484;2024-03-02T06:58:54;2.63;;;2.00;;
15192;SDS011;7697;51.630;7.484;2024-03-02T07:03:56;2.95;;;2.30;;
15192;SDS011;7697;51.630;7.484;2024-03-02T07:08:58;2.90;;;2.25;;
15192;SDS011;7697;51.630;7.484;2024-03-02T07:14:01;3.65;;;2.00;;
15192;SDS011;7697;51.630;7.484;2024-03-02T07:19:03;3.10;;;2.05;;
15192;SDS011;7697;51.630;7.484;2024-03-02T07:24:05;2.92;;;2.10;;
15192;SDS011;7697;51.630;7.484;2024-03-02T07:29:11;1.83;;;1.65;;
15192;SDS011;7697;51.630;7.484;2024-03-02T07:34:13;3.03;;;2.10;;
15192;SDS011;7697;51.630;7.484;2024-03-02T07:39:14;3.35;;;2.10;;
15192;SDS011;7697;51.630;7.484;2024-03-02T07:44:18;2.78;;;2.08;;
15192;SDS011;7697;51.630;7.484;2024-03-02T07:49:20;5.78;;;2.90;;
15192;SDS011;7697;51.630;7.484;2024-03-02T07:54:22;3.65;;;2.67;;
15192;SDS011;7697;51.630;7.484;2024-03-02T07:59:25;3.67;;;2.50;;
15192;SDS011;7697;51.630;7.484;2024-03-02T08:04:27;4.22;;;2.58;;
15192;SDS011;7697;51.630;7.484;2024-03-02T08:09:28;4.65;;;2.50;;
15192;SDS011;7697;51.630;7.484;2024-03-02T08:14:32;4.05;;;2.28;;
15192;SDS011;7697;51.630;7.484;2024-03-02T08:19:33;3.63;;;2.60;;
15192;SDS011;7697;51.630;7.484;2024-03-02T08:24:35;3.80;;;2.45;;
15192;SDS011;7697;51.630;7.484;2024-03-02T08:29:39;3.90;;;2.42;;
15192;SDS011;7697;51.630;7.484;2024-03-02T08:34:41;2.67;;;1.85;;
15192;SDS011;7697;51.630;7.484;2024-03-02T08:39:43;3.13;;;2.28;;
15192;SDS011;7697;51.630;7.484;2024-03-02T08:44:47;2.85;;;2.13;;
15192;SDS011;7697;51.630;7.484;2024-03-02T08:49:49;2.42;;;1.90;;
15192;SDS011;7697;51.630;7.484;2024-03-02T08:54:51;3.03;;;1.75;;
15192;SDS011;7697;51.630;7.484;2024-03-02T08:59:54;3.45;;;1.98;;
15192;SDS011;7697;51.630;7.484;2024-03-02T09:04:56;2.20;;;1.80;;
15192;SDS011;7697;51.630;7.484;2024-03-02T09:09:59;2.72;;;2.00;;
15192;SDS011;7697;51.630;7.484;2024-03-02T09:15:02;2.45;;;1.50;;
15192;SDS011;7697;51.630;7.484;2024-03-02T09:20:06;3.22;;;1.65;;
15192;SDS011;7697;51.630;7.484;2024-03-02T09:25:08;2.10;;;1.48;;
15192;SDS011;7697;51.630;7.484;2024-03-02T09:30:12;2.30;;;1.80;;
15192;SDS011;7697;51.630;7.484;2024-03-02T09:35:15;3.40;;;1.92;;
15192;SDS011;7697;51.630;7.484;2024-03-02T09:40:16;1.90;;;1.60;;
15192;SDS011;7697;51.630;7.484;2024-03-02T09:45:22;2.92;;;1.70;;
15192;SDS011;7697;51.630;7.484;2024-03-02T09:50:25;2.78;;;1.70;;
15192;SDS011;7697;51.630;7.484;2024-03-02T09:55:26;1.88;;;1.30;;
15192;SDS011;7697;51.630;7.484;2024-03-02T10:00:30;1.65;;;1.27;;
15192;SDS011;7697;51.630;7.484;2024-03-02T10:05:31;1.42;;;1.13;;
15192;SDS011;7697;51.630;7.484;2024-03-02T10:10:36;1.90;;;1.50;;
15192;SDS011;7697;51.630;7.484;2024-03-02T10:15:43;1.90;;;1.30;;
15192;SDS011;7697;51.630;7.484;2024-03-02T10:20:45;2.65;;;1.40;;
15192;SDS011;7697;51.630;7.484;2024-03-02T10:25:48;2.47;;;1.35;;
15192;SDS011;7697;51.630;7.484;2024-03-02T10:30:51;1.77;;;1.30;;
15192;SDS011;7697;51.630;7.484;2024-03-02T10:35:53;1.30;;;1.00;;
15192;SDS011;7697;51.630;7.484;2024-03-02T10:40:56;1.55;;;1.00;;
15192;SDS011;7697;51.630;7.484;2024-03-02T10:46:01;1.13;;;1.00;;
15192;SDS011;7697;51.630;7.484;2024-03-02T10:51:03;6.03;;;4.00;;
15192;SDS011;7697;51.630;7.484;2024-03-02T10:56:06;3.35;;;1.33;;
15192;SDS011;7697;51.630;7.484;2024-03-02T11:01:12;3.22;;;1.50;;
15192;SDS011;7697;51.630;7.484;2024-03-02T11:06:15;1.65;;;1.20;;
15192;SDS011;7697;51.630;7.484;2024-03-02T11:11:19;2.28;;;1.00;;
15192;SDS011;7697;51.630;7.484;2024-03-02T11:16:31;1.80;;;1.23;;
15192;SDS011;7697;51.630;7.484;2024-03-02T11:21:36;1.50;;;1.00;;
15192;SDS011;7697;51.630;7.484;2024-03-02T11:26:38;1.33;;;1.23;;
15192;SDS011;7697;51.630;7.484;2024-03-02T11:37:16;1.25;;;1.08;;
15192;SDS011;7697;51.630;7.484;2024-03-02T11:42:18;1.38;;;1.00;;
15192;SDS011;7697;51.630;7.484;2024-03-02T11:47:22;1.15;;;1.00;;
15192;SDS011;7697;51.630;7.484;2024-03-02T11:52:23;1.05;;;0.90;;
15192;SDS011;7697;51.630;7.484;2024-03-02T11:57:28;2.10;;;1.13;;
15192;SDS011;7697;51.630;7.484;2024-03-02T12:02:33;1.10;;;0.82;;
15192;SDS011;7697;51.630;7.484;2024-03-02T12:07:35;1.65;;;1.20;;
15192;SDS011;7697;51.630;7.484;2024-03-02T12:12:37;1.50;;;1.08;;
15192;SDS011;7697;51.630;7.484;2024-03-02T12:17:40;1.15;;;1.00;;
15192;SDS011;7697;51.630;7.484;2024-03-02T12:22:42;1.23;;;0.80;;
15192;SDS011;7697;51.630;7.484;2024-03-02T12:27:46;1.15;;;1.02;;
15192;SDS011;7697;51.630;7.484;2024-03-02T12:32:50;1.08;;;0.90;;
15192;SDS011;7697;51.630;7.484;2024-03-02T12:37:52;1.17;;;1.00;;
15192;SDS011;7697;51.630;7.484;2024-03-02T12:42:55;1.20;;;1.10;;
15192;SDS011;7697;51.630;7.484;2024-03-02T12:47:59;0.90;;;0.88;;
15192;SDS011;7697;51.630;7.484;2024-03-02T12:53:01;1.08;;;0.90;;
15192;SDS011;7697;51.630;7.484;2024-03-02T12:58:03;1.50;;;1.00;;
15192;SDS011;7697;51.630;7.484;2024-03-02T13:03:06;1.70;;;1.20;;
15192;SDS011;7697;51.630;7.484;2024-03-02T13:08:08;0.80;;;0.80;;
15192;SDS011;7697;51.630;7.484;2024-03-02T13:13:10;1.30;;;1.15;;
15192;SDS011;7697;51.630;7.484;2024-03-02T13:18:13;0.85;;;0.85;;
15192;SDS011;7697;51.630;7.484;2024-03-02T13:23:15;1.10;;;0.85;;
15192;SDS011;7697;51.630;7.484;2024-03-02T13:28:17;0.90;;;0.90;;
15192;SDS011;7697;51.630;7.484;2024-03-02T13:33:20;1.15;;;1.05;;
15192;SDS011;7697;51.630;7.484;2024-03-02T13:38:23;1.50;;;1.00;;
15192;SDS011;7697;51.630;7.484;2024-03-02T13:43:25;1.67;;;1.10;;
15192;SDS011;7697;51.630;7.484;2024-03-02T13:48:28;0.88;;;0.88;;
15192;SDS011;7697;51.630;7.484;2024-03-02T13:53:30;0.80;;;0.80;;
15192;SDS011;7697;51.630;7.484;2024-03-02T13:58:33;1.25;;;0.90;;
15192;SDS011;7697;51.630;7.484;2024-03-02T14:03:36;1.15;;;0.63;;
15192;SDS011;7697;51.630;7.484;2024-03-02T14:08:38;0.95;;;0.90;;
15192;SDS011;7697;51.630;7.484;2024-03-02T14:13:40;1.10;;;1.00;;
15192;SDS011;7697;51.630;7.484;2024-03-02T14:18:43;0.90;;;0.80;;
15192;SDS011;7697;51.630;7.484;2024-03-02T14:23:45;1.15;;;0.80;;
15192;SDS011;7697;51.630;7.484;2024-03-02T14:28:47;0.93;;;0.85;;
15192;SDS011;7697;51.630;7.484;2024-03-02T14:33:50;1.10;;;0.70;;
15192;SDS011;7697;51.630;7.484;2024-03-02T14:38:53;1.92;;;1.00;;
15192;SDS011;7697;51.630;7.484;2024-03-02T14:43:55;1.65;;;1.08;;
15192;SDS011;7697;51.630;7.484;2024-03-02T14:48:58;1.23;;;1.00;;
15192;SDS011;7697;51.630;7.484;2024-03-02T14:54:00;1.25;;;1.00;;
15192;SDS011;7697;51.630;7.484;2024-03-02T14:59:03;1.65;;;1.10;;
15192;SDS011;7697;51.630;7.484;2024-03-02T15:04:06;1.30;;;1.20;;
15192;SDS011;7697;51.630;7.484;2024-03-02T15:09:08;1.77;;;1.35;;
15192;SDS011;7697;51.630;7.484;2024-03-02T15:14:09;1.25;;;1.15;;
15192;SDS011;7697;51.630;7.484;2024-03-02T15:19:12;1.50;;;1.40;;
15192;SDS011;7697;51.630;7.484;2024-03-02T15:24:14;1.80;;;1.45;;
15192;SDS011;7697;51.630;7.484;2024-03-02T15:29:16;1.92;;;1.55;;
15192;SDS011;7697;51.630;7.484;2024-03-02T15:34:20;1.73;;;1.55;;
15192;SDS011;7697;51.630;7.484;2024-03-02T15:39:23;1.85;;;1.50;;
15192;SDS011;7697;51.630;7.484;2024-03-02T15:44:24;1.77;;;1.40;;
15192;SDS011;7697;51.630;7.484;2024-03-02T15:49:28;2.78;;;1.33;;
15192;SDS011;7697;51.630;7.484;2024-03-02T15:54:32;1.52;;;1.20;;
15192;SDS011;7697;51.630;7.484;2024-03-02T15:59:33;1.27;;;1.10;;
15192;SDS011;7697;51.630;7.484;2024-03-02T16:04:37;1.40;;;1.30;;
15192;SDS011;7697;51.630;7.484;2024-03-02T16:09:39;1.70;;;1.20;;
15192;SDS011;7697;51.630;7.484;2024-03-02T16:14:40;2.15;;;1.48;;
15192;SDS011;7697;51.630;7.484;2024-03-02T16:19:43;2.10;;;1.35;;
15192;SDS011;7697;51.630;7.484;2024-03-02T16:24:45;2.30;;;1.20;;
15192;SDS011;7697;51.630;7.484;2024-03-02T16:29:47;1.35;;;1.00;;
15192;SDS011;7697;51.630;7.484;2024-03-02T16:34:50;1.50;;;1.40;;
15192;SDS011;7697;51.630;7.484;2024-03-02T16:39:52;1.77;;;1.40;;
15192;SDS011;7697;51.630;7.484;2024-03-02T16:44:55;1.65;;;1.33;;
15192;SDS011;7697;51.630;7.484;2024-03-02T16:49:59;1.70;;;1.40;;
15192;SDS011;7697;51.630;7.484;2024-03-02T16:55:01;1.95;;;1.58;;
15192;SDS011;7697;51.630;7.484;2024-03-02T17:00:03;1.30;;;1.20;;
15192;SDS011;7697;51.630;7.484;2024-03-02T17:05:09;1.92;;;1.65;;
15192;SDS011;7697;51.630;7.484;2024-03-02T17:10:11;1.77;;;1.60;;
15192;SDS011;7697;51.630;7.484;2024-03-02T17:15:14;2.00;;;1.60;;
15192;SDS011;7697;51.630;7.484;2024-03-02T17:20:17;2.50;;;1.52;;
15192;SDS011;7697;51.630;7.484;2024-03-02T17:25:19;2.13;;;1.83;;
15192;SDS011;7697;51.630;7.484;2024-03-02T17:30:21;2.05;;;1.60;;
15192;SDS011;7697;51.630;7.484;2024-03-02T17:35:24;2.53;;;1.75;;
15192;SDS011;7697;51.630;7.484;2024-03-02T17:40:26;2.70;;;2.03;;
15192;SDS011;7697;51.630;7.484;2024-03-02T17:45:28;2.17;;;1.98;;
15192;SDS011;7697;51.630;7.484;2024-03-02T17:50:32;3.33;;;2.05;;
15192;SDS011;7697;51.630;7.484;2024-03-02T17:55:34;2.33;;;2.00;;
15192;SDS011;7697;51.630;7.484;2024-03-02T18:00:37;3.10;;;2.38;;
15192;SDS011;7697;51.630;7.484;2024-03-02T18:05:40;3.22;;;2.55;;
15192;SDS011;7697;51.630;7.484;2024-03-02T18:10:42;3.78;;;2.85;;
15192;SDS011;7697;51.630;7.484;2024-03-02T18:15:43;3.72;;;2.53;;
15192;SDS011;7697;51.630;7.484;2024-03-02T18:20:47;3.83;;;2.60;;
15192;SDS011;7697;51.630;7.484;2024-03-02T18:25:49;2.70;;;2.30;;
15192;SDS011;7697;51.630;7.484;2024-03-02T18:30:51;2.90;;;2.58;;
15192;SDS011;7697;51.630;7.484;2024-03-02T18:35:54;3.47;;;2.70;;
15192;SDS011;7697;51.630;7.484;2024-03-02T18:40:56;4.22;;;2.70;;
15192;SDS011;7697;51.630;7.484;2024-03-02T18:45:59;3.20;;;2.50;;
15192;SDS011;7697;51.630;7.484;2024-03-02T18:51:06;3.33;;;2.30;;
15192;SDS011;7697;51.630;7.484;2024-03-02T18:56:09;5.13;;;3.00;;
15192;SDS011;7697;51.630;7.484;2024-03-02T19:01:11;3.05;;;2.30;;
15192;SDS011;7697;51.630;7.484;2024-03-02T19:06:15;3.25;;;2.40;;
15192;SDS011;7697;51.630;7.484;2024-03-02T19:11:17;5.40;;;2.53;;
15192;SDS011;7697;51.630;7.484;2024-03-02T19:16:20;2.40;;;2.13;;
15192;SDS011;7697;51.630;7.484;2024-03-02T19:21:23;3.55;;;2.33;;
15192;SDS011;7697;51.630;7.484;2024-03-02T19:26:25;3.50;;;2.28;;
15192;SDS011;7697;51.630;7.484;2024-03-02T19:31:27;2.58;;;1.85;;
15192;SDS011;7697;51.630;7.484;2024-03-02T19:36:30;3.08;;;2.20;;
15192;SDS011;7697;51.630;7.484;2024-03-02T19:41:31;3.10;;;2.20;;
15192;SDS011;7697;51.630;7.484;2024-03-02T19:46:33;2.95;;;2.40;;
15192;SDS011;7697;51.630;7.484;2024-03-02T19:51:36;5.22;;;3.88;;
15192;SDS011;7697;51.630;7.484;2024-03-02T19:56:38;5.40;;;3.60;;
15192;SDS011;7697;51.630;7.484;2024-03-02T20:01:40;3.38;;;2.72;;
15192;SDS011;7697;51.630;7.484;2024-03-02T20:06:44;3.10;;;2.60;;
15192;SDS011;7697;51.630;7.484;2024-03-02T20:11:45;3.95;;;2.95;;
15192;SDS011;7697;51.630;7.484;2024-03-02T20:16:51;3.00;;;2.58;;
15192;SDS011;7697;51.630;7.484;2024-03-02T20:21:54;3.45;;;2.90;;
15192;SDS011;7697;51.630;7.484;2024-03-02T20:26:56;3.80;;;3.40;;
15192;SDS011;7697;51.630;7.484;2024-03-02T20:31:58;3.85;;;3.30;;
15192;SDS011;7697;51.630;7.484;2024-03-02T20:37:01;4.32;;;3.47;;
15192;SDS011;7697;51.630;7.484;2024-03-02T20:42:04;4.28;;;3.55;;
15192;SDS011;7697;51.630;7.484;2024-03-02T20:47:06;4.93;;;3.33;;
15192;SDS011;7697;51.630;7.484;2024-03-02T20:52:09;4.20;;;3.15;;
15192;SDS011;7697;51.630;7.484;2024-03-02T20:57:11;4.55;;;3.58;;
15192;SDS011;7697;51.630;7.484;2024-03-02T21:02:13;5.13;;;3.83;;
15192;SDS011;7697;51.630;7.484;2024-03-02T21:07:16;5.13;;;3.80;;
15192;SDS011;7697;51.630;7.484;2024-03-02T21:12:18;4.97;;;3.67;;
15192;SDS011;7697;51.630;7.484;2024-03-02T21:17:20;4.00;;;3.35;;
15192;SDS011;7697;51.630;7.484;2024-03-02T21:22:23;5.28;;;3.25;;
15192;SDS011;7697;51.630;7.484;2024-03-02T21:27:25;4.47;;;3.53;;
15192;SDS011;7697;51.630;7.484;2024-03-02T21:32:26;4.72;;;3.50;;
15192;SDS011;7697;51.630;7.484;2024-03-02T21:37:29;4.43;;;3.80;;
15192;SDS011;7697;51.630;7.484;2024-03-02T21:42:31;3.97;;;3.30;;
15192;SDS011;7697;51.630;7.484;2024-03-02T21:47:33;3.83;;;3.20;;
15192;SDS011;7697;51.630;7.484;2024-03-02T21:52:36;4.65;;;3.50;;
15192;SDS011;7697;51.630;7.484;2024-03-02T21:57:38;6.18;;;3.83;;
15192;SDS011;7697;51.630;7.484;2024-03-02T22:02:40;4.07;;;3.67;;
15192;SDS011;7697;51.630;7.484;2024-03-02T22:07:43;3.58;;;3.28;;
15192;SDS011;7697;51.630;7.484;2024-03-02T22:12:45;4.47;;;3.65;;
15192;SDS011;7697;51.630;7.484;2024-03-02T22:17:47;3.80;;;3.42;;
15192;SDS011;7697;51.630;7.484;2024-03-02T22:22:50;4.20;;;3.70;;
15192;SDS011;7697;51.630;7.484;2024-03-02T22:27:52;4.63;;;4.10;;
15192;SDS011;7697;51.630;7.484;2024-03-02T22:32:55;6.10;;;4.82;;
15192;SDS011;7697;51.630;7.484;2024-03-02T22:37:59;6.07;;;4.60;;
15192;SDS011;7697;51.630;7.484;2024-03-02T22:43:01;5.35;;;4.47;;
15192;SDS011;7697;51.630;7.484;2024-03-02T22:48:03;6.00;;;4.30;;
15192;SDS011;7697;51.630;7.484;2024-03-02T22:53:06;4.90;;;4.05;;
15192;SDS011;7697;51.630;7.484;2024-03-02T22:58:08;6.25;;;4.57;;
15192;SDS011;7697;51.630;7.484;2024-03-02T23:03:10;5.45;;;4.45;;
15192;SDS011;7697;51.630;7.484;2024-03-02T23:08:13;5.68;;;4.72;;
15192;SDS011;7697;51.630;7.484;2024-03-02T23:13:15;5.68;;;4.13;;
15192;SDS011;7697;51.630;7.484;2024-03-02T23:18:17;5.50;;;4.68;;
15192;SDS011;7697;51.630;7.484;2024-03-02T23:23:20;5.22;;;4.40;;
15192;SDS011;7697;51.630;7.484;2024-03-02T23:28:22;4.53;;;4.05;;
15192;SDS011;7697;51.630;7.484;2024-03-02T23:33:24;5.57;;;4.00;;
15192;SDS011;7697;51.630;7.484;2024-03-02T23:38:27;4.80;;;4.25;;
15192;SDS011;7697;51.630;7.484;2024-03-02T23:43:29;6.30;;;4.20;;
15192;SDS011;7697;51.630;7.484;2024-03-02T23:48:31;5.25;;;4.40;;
15192;SDS011;7697;51.630;7.484;2024-03-02T23:53:34;4.80;;;4.20;;
15192;SDS011;7697;51.630;7.484;2024-03-02T23:58:36;5.75;;;4.72;;
